createdAt,value
2022-11-15T00:02:25.544Z,64.76
2022-11-15T00:04:51.966Z,64.82
2022-11-15T00:07:48.443Z,64.79
2022-11-15T00:10:04.761Z,64.57
2022-11-15T00:12:31.074Z,64.45
2022-11-15T00:14:57.653Z,64.91
2022-11-15T00:17:24.006Z,64.50
2022-11-15T00:19:50.413Z,64.53
2022-11-15T00:22:16.855Z,64.91
2022-11-15T00:24:43.299Z,64.47
2022-11-15T00:27:09.634Z,64.62
2022-11-15T00:29:35.986Z,64.76
2022-11-15T00:32:02.315Z,64.71
2022-11-15T00:34:28.938Z,64.78
2022-11-15T00:36:55.375Z,64.49
2022-11-15T00:39:21.727Z,64.51
2022-11-15T00:41:48.951Z,64.40
2022-11-15T00:44:15.303Z,64.67
2022-11-15T00:46:41.747Z,64.26
2022-11-15T00:49:08.039Z,64.66
2022-11-15T00:51:34.354Z,64.30
2022-11-15T00:54:00.703Z,64.69
2022-11-15T00:56:27.346Z,64.43
2022-11-15T00:58:53.718Z,64.15
2022-11-15T01:01:20.191Z,64.47
2022-11-15T01:03:46.708Z,64.21
2022-11-15T01:06:13.216Z,64.09
2022-11-15T01:08:39.507Z,64.11
2022-11-15T01:11:05.803Z,64.36
2022-11-15T01:13:32.513Z,64.51
2022-11-15T01:15:59.161Z,64.25
2022-11-15T01:18:25.531Z,64.36
2022-11-15T01:20:51.946Z,64.10
2022-11-15T01:23:18.432Z,64.24
2022-11-15T01:25:44.782Z,64.21
2022-11-15T01:28:11.184Z,64.22
2022-11-15T01:30:37.563Z,64.27
2022-11-15T01:33:03.995Z,64.07
2022-11-15T01:35:30.281Z,64.10
2022-11-15T01:37:56.824Z,64.40
2022-11-15T01:40:23.192Z,64.18
2022-11-15T01:42:49.646Z,64.09
2022-11-15T01:45:15.958Z,64.07
2022-11-15T01:47:42.293Z,64.08
2022-11-15T01:50:08.779Z,64.44
2022-11-15T01:52:35.101Z,64.00
2022-11-15T01:55:01.527Z,64.31
2022-11-15T01:57:28.302Z,64.00
2022-11-15T01:59:54.785Z,64.24
2022-11-15T02:02:21.097Z,64.15
2022-11-15T02:04:47.659Z,64.03
2022-11-15T02:07:14.258Z,64.01
2022-11-15T02:09:40.965Z,63.93
2022-11-15T02:12:07.276Z,64.17
2022-11-15T02:14:34.098Z,64.16
2022-11-15T02:17:00.389Z,64.09
2022-11-15T02:19:26.798Z,64.00
2022-11-15T02:21:53.180Z,64.26
2022-11-15T02:24:19.817Z,64.04
2022-11-15T02:26:46.121Z,64.20
2022-11-15T02:29:12.721Z,64.40
2022-11-15T02:31:39.072Z,63.95
2022-11-15T02:34:05.369Z,64.17
2022-11-15T02:36:31.673Z,64.04
2022-11-15T02:38:57.938Z,63.98
2022-11-15T02:41:24.264Z,63.84
2022-11-15T02:43:50.593Z,63.79
2022-11-15T02:46:16.913Z,63.96
2022-11-15T02:48:43.193Z,64.11
2022-11-15T02:51:09.532Z,63.94
2022-11-15T02:53:35.942Z,63.88
2022-11-15T02:56:02.292Z,64.07
2022-11-15T02:58:28.633Z,64.01
2022-11-15T03:00:55.012Z,63.90
2022-11-15T03:03:21.431Z,63.78
2022-11-15T03:05:47.892Z,64.15
2022-11-15T03:08:14.231Z,63.69
2022-11-15T03:10:40.575Z,63.98
2022-11-15T03:13:06.890Z,63.68
2022-11-15T03:15:33.232Z,63.74
2022-11-15T03:18:00.192Z,63.78
2022-11-15T03:20:26.837Z,63.65
2022-11-15T03:22:53.242Z,63.92
2022-11-15T03:25:19.546Z,63.73
2022-11-15T03:27:46.062Z,63.66
2022-11-15T03:30:12.432Z,63.68
2022-11-15T03:32:38.868Z,63.73
2022-11-15T03:35:05.320Z,63.65
2022-11-15T03:37:31.632Z,63.75
2022-11-15T03:39:58.026Z,64.01
2022-11-15T03:42:24.340Z,63.65
2022-11-15T03:44:50.684Z,63.83
2022-11-15T03:47:17.028Z,63.77
2022-11-15T03:49:43.384Z,63.63
2022-11-15T03:52:09.768Z,63.64
2022-11-15T03:54:36.088Z,63.84
2022-11-15T03:57:02.486Z,63.93
2022-11-15T03:59:28.914Z,63.71
2022-11-15T04:01:55.223Z,63.65
2022-11-15T04:04:21.615Z,63.89
2022-11-15T04:06:48.057Z,63.59
2022-11-15T04:09:14.546Z,63.64
2022-11-15T04:11:40.880Z,63.79
2022-11-15T04:14:07.277Z,63.71
2022-11-15T04:16:33.690Z,63.92
2022-11-15T04:19:00.010Z,63.83
2022-11-15T04:21:26.356Z,63.57
2022-11-15T04:23:52.740Z,63.74
2022-11-15T04:26:19.000Z,63.71
2022-11-15T04:28:45.465Z,63.59
2022-11-15T04:31:11.754Z,63.80
2022-11-15T04:33:39.291Z,63.92
2022-11-15T04:36:05.611Z,63.70
2022-11-15T04:38:32.067Z,63.61
2022-11-15T04:40:58.436Z,63.86
2022-11-15T04:43:24.798Z,63.85
2022-11-15T04:45:51.067Z,63.60
2022-11-15T04:48:17.683Z,63.65
2022-11-15T04:50:43.965Z,63.63
2022-11-15T04:53:10.693Z,63.62
2022-11-15T04:55:37.198Z,63.53
2022-11-15T04:58:03.572Z,63.75
2022-11-15T05:00:29.848Z,63.88
2022-11-15T05:02:56.176Z,63.69
2022-11-15T05:05:22.476Z,63.56
2022-11-15T05:07:48.881Z,63.61
2022-11-15T05:10:15.160Z,63.50
2022-11-15T05:12:41.536Z,63.66
2022-11-15T05:15:07.863Z,63.54
2022-11-15T05:17:34.119Z,63.50
2022-11-15T05:20:00.566Z,63.49
2022-11-15T05:22:27.119Z,63.64
2022-11-15T05:24:53.433Z,63.55
2022-11-15T05:27:19.857Z,64.00
2022-11-15T05:29:46.202Z,63.45
2022-11-15T05:32:12.517Z,63.65
2022-11-15T05:34:38.975Z,63.71
2022-11-15T05:37:05.322Z,63.86
2022-11-15T05:39:31.884Z,63.80
2022-11-15T05:41:58.284Z,63.63
2022-11-15T05:44:24.615Z,63.68
2022-11-15T05:46:50.911Z,63.44
2022-11-15T05:49:17.340Z,63.79
2022-11-15T05:51:43.611Z,63.73
2022-11-15T05:54:11.973Z,63.57
2022-11-15T05:56:38.351Z,63.57
2022-11-15T05:59:04.936Z,63.74
2022-11-15T06:01:31.295Z,63.59
2022-11-15T06:03:57.586Z,63.57
2022-11-15T06:06:23.910Z,63.67
2022-11-15T06:08:50.474Z,63.36
2022-11-15T06:11:16.828Z,63.54
2022-11-15T06:13:43.294Z,63.80
2022-11-15T06:16:09.655Z,63.54
2022-11-15T06:18:35.987Z,63.46
2022-11-15T06:21:02.496Z,63.90
2022-11-15T06:23:29.123Z,63.54
2022-11-15T06:25:55.717Z,63.67
2022-11-15T06:28:22.197Z,63.77
2022-11-15T06:30:53.026Z,63.71
2022-11-15T06:33:19.718Z,63.71
2022-11-15T06:35:46.011Z,63.47
2022-11-15T06:38:12.413Z,63.73
2022-11-15T06:40:38.867Z,63.69
2022-11-15T06:43:05.291Z,63.48
2022-11-15T06:45:32.807Z,64.02
2022-11-15T06:47:59.730Z,63.82
2022-11-15T06:50:26.914Z,63.43
2022-11-15T06:52:53.700Z,63.32
2022-11-15T06:55:20.482Z,63.24
2022-11-15T06:57:47.439Z,62.92
2022-11-15T07:00:14.630Z,63.09
2022-11-15T07:02:41.594Z,63.12
2022-11-15T07:05:08.362Z,63.43
2022-11-15T07:10:19.840Z,63.07
2022-11-15T07:15:27.198Z,63.26
2022-11-15T07:17:54.923Z,62.97
2022-11-15T07:20:21.606Z,63.42
2022-11-15T07:22:48.235Z,63.23
2022-11-15T07:25:14.899Z,63.31
2022-11-15T07:27:41.535Z,63.61
2022-11-15T07:30:08.018Z,63.77
2022-11-15T07:32:34.541Z,63.55
2022-11-15T07:35:00.913Z,63.99
2022-11-15T07:37:27.370Z,64.00
2022-11-15T07:39:53.794Z,64.04
2022-11-15T07:42:20.054Z,63.77
2022-11-15T07:44:46.470Z,63.91
2022-11-15T07:47:12.948Z,64.29
2022-11-15T07:49:39.333Z,63.90
2022-11-15T07:52:05.702Z,64.08
2022-11-15T07:54:31.997Z,64.02
2022-11-15T07:57:01.239Z,64.35
2022-11-15T07:59:32.182Z,64.20
2022-11-15T08:01:58.645Z,64.44
2022-11-15T08:04:25.171Z,64.27
2022-11-15T08:06:51.525Z,64.12
2022-11-15T08:09:17.867Z,64.52
2022-11-15T08:11:44.198Z,64.22
2022-11-15T08:14:10.565Z,64.10
2022-11-15T08:16:36.990Z,64.35
2022-11-15T08:19:03.374Z,64.33
2022-11-15T08:21:29.678Z,64.42
2022-11-15T08:23:55.976Z,64.42
2022-11-15T08:26:22.476Z,64.82
2022-11-15T08:28:48.856Z,64.67
2022-11-15T08:31:15.353Z,64.57
2022-11-15T08:33:41.639Z,64.40
2022-11-15T08:36:08.047Z,64.66
2022-11-15T08:38:34.711Z,64.38
2022-11-15T08:41:01.315Z,64.80
2022-11-15T08:43:27.700Z,64.67
2022-11-15T08:45:54.078Z,64.77
2022-11-15T08:48:20.474Z,64.76
2022-11-15T08:50:46.889Z,64.61
2022-11-15T08:53:13.413Z,64.52
2022-11-15T08:55:39.738Z,64.73
2022-11-15T08:58:06.114Z,64.64
2022-11-15T09:00:32.723Z,64.65
2022-11-15T09:02:59.110Z,64.68
2022-11-15T09:05:25.529Z,64.81
2022-11-15T09:07:51.875Z,64.95
2022-11-15T09:10:18.326Z,64.84
2022-11-15T09:12:44.767Z,65.07
2022-11-15T09:15:12.189Z,65.18
2022-11-15T09:17:38.500Z,65.07
2022-11-15T09:20:04.970Z,65.14
2022-11-15T09:22:31.336Z,65.20
2022-11-15T09:24:57.649Z,65.14
2022-11-15T09:27:24.161Z,65.38
2022-11-15T09:29:50.816Z,65.13
2022-11-15T09:32:17.916Z,65.13
2022-11-15T09:37:22.917Z,65.13
2022-11-15T09:39:49.533Z,65.05
2022-11-15T09:42:16.180Z,65.25
2022-11-15T09:44:43.654Z,65.48
2022-11-15T09:47:10.281Z,65.16
2022-11-15T09:49:37.414Z,65.43
2022-11-15T09:52:03.971Z,65.47
2022-11-15T09:54:52.081Z,65.60
2022-11-15T09:57:16.750Z,65.49
2022-11-15T09:59:43.153Z,65.42
2022-11-15T10:02:09.603Z,65.51
2022-11-15T10:04:36.173Z,65.34
2022-11-15T10:07:02.604Z,65.52
2022-11-15T10:09:28.997Z,65.37
2022-11-15T10:11:55.405Z,65.34
2022-11-15T10:14:21.880Z,65.66
2022-11-15T10:16:48.258Z,65.42
2022-11-15T10:19:14.818Z,65.52
2022-11-15T10:21:41.262Z,65.36
2022-11-15T10:24:07.590Z,65.51
2022-11-15T10:26:34.034Z,65.53
2022-11-15T10:29:00.682Z,67.07
2022-11-15T10:31:27.043Z,66.20
2022-11-15T10:33:53.595Z,65.86
2022-11-15T10:36:20.128Z,65.93
2022-11-15T10:38:46.596Z,65.88
2022-11-15T10:41:13.241Z,65.71
2022-11-15T10:43:39.678Z,65.96
2022-11-15T10:46:31.610Z,65.82
2022-11-15T10:48:54.800Z,65.86
2022-11-15T10:51:21.311Z,65.51
2022-11-15T10:53:47.719Z,65.40
2022-11-15T10:56:14.298Z,65.44
2022-11-15T10:58:40.926Z,65.42
2022-11-15T11:01:07.852Z,65.48
2022-11-15T11:03:34.142Z,65.39
2022-11-15T11:06:00.520Z,65.74
2022-11-15T11:08:26.888Z,65.37
2022-11-15T11:10:57.148Z,65.49
2022-11-15T11:13:26.864Z,65.58
2022-11-15T11:15:53.297Z,65.34
2022-11-15T11:18:22.239Z,65.38
2022-11-15T11:20:48.536Z,65.34
2022-11-15T11:23:14.981Z,65.47
2022-11-15T11:25:43.500Z,65.55
2022-11-15T11:28:09.882Z,65.57
2022-11-15T11:30:36.183Z,65.68
2022-11-15T11:33:02.636Z,65.33
2022-11-15T11:35:29.113Z,65.56
2022-11-15T11:37:55.644Z,65.22
2022-11-15T11:40:21.957Z,65.39
2022-11-15T11:42:48.407Z,65.46
2022-11-15T11:45:14.751Z,65.59
2022-11-15T11:47:41.113Z,65.42
2022-11-15T11:50:07.494Z,65.38
2022-11-15T11:52:34.289Z,65.32
2022-11-15T11:55:03.049Z,65.34
2022-11-15T11:57:29.742Z,65.49
2022-11-15T11:59:58.571Z,65.48
2022-11-15T12:02:25.089Z,65.36
2022-11-15T12:07:26.529Z,65.50
2022-11-15T12:09:53.079Z,65.36
2022-11-15T12:12:19.850Z,65.24
2022-11-15T12:14:46.415Z,65.40
2022-11-15T12:17:13.072Z,65.58
2022-11-15T12:19:39.460Z,65.39
2022-11-15T12:22:05.969Z,65.26
2022-11-15T12:24:32.316Z,65.69
2022-11-15T12:26:58.652Z,65.39
2022-11-15T12:29:25.994Z,65.38
2022-11-15T12:31:52.449Z,65.21
2022-11-15T12:34:18.859Z,65.66
2022-11-15T12:36:45.284Z,65.68
2022-11-15T12:39:11.702Z,65.76
2022-11-15T12:41:38.118Z,65.78
2022-11-15T12:44:04.622Z,65.37
2022-11-15T12:46:31.030Z,65.68
2022-11-15T12:48:57.538Z,65.46
2022-11-15T12:51:23.959Z,65.73
2022-11-15T12:53:51.465Z,65.43
2022-11-15T12:56:17.777Z,65.92
2022-11-15T12:58:44.104Z,65.82
2022-11-15T13:01:10.407Z,65.55
2022-11-15T13:03:37.058Z,65.56
2022-11-15T13:06:03.589Z,65.83
2022-11-15T13:08:30.241Z,65.79
2022-11-15T13:10:56.918Z,66.08
2022-11-15T13:13:23.543Z,65.69
2022-11-15T13:15:49.930Z,66.02
2022-11-15T13:18:16.342Z,65.90
2022-11-15T13:20:42.769Z,66.12
2022-11-15T13:23:09.245Z,66.11
2022-11-15T13:25:36.740Z,66.01
2022-11-15T13:28:07.742Z,66.18
2022-11-15T13:30:34.372Z,66.14
2022-11-15T13:33:00.886Z,66.03
2022-11-15T13:35:27.303Z,65.78
2022-11-15T13:37:53.783Z,65.85
2022-11-15T13:40:20.321Z,66.01
2022-11-15T13:42:46.627Z,66.24
2022-11-15T13:45:13.349Z,66.47
2022-11-15T13:47:39.925Z,66.41
2022-11-15T13:50:12.112Z,66.47
2022-11-15T13:52:38.892Z,66.11
2022-11-15T13:55:05.416Z,66.44
2022-11-15T13:57:32.159Z,66.24
2022-11-15T13:59:59.009Z,66.21
2022-11-15T14:02:25.438Z,66.32
2022-11-15T14:04:51.748Z,66.03
2022-11-15T14:07:18.101Z,66.36
2022-11-15T14:09:44.409Z,66.36
2022-11-15T14:12:10.837Z,65.95
2022-11-15T14:14:37.212Z,66.23
2022-11-15T14:17:03.808Z,65.96
2022-11-15T14:19:30.316Z,65.98
2022-11-15T14:21:56.695Z,65.87
2022-11-15T14:24:23.066Z,66.16
2022-11-15T14:26:49.379Z,66.09
2022-11-15T14:29:15.674Z,65.94
2022-11-15T14:31:43.953Z,66.08
2022-11-15T14:34:10.550Z,66.04
2022-11-15T14:36:36.924Z,65.78
2022-11-15T14:39:03.248Z,65.75
2022-11-15T14:41:29.616Z,66.15
2022-11-15T14:43:55.967Z,66.02
2022-11-15T14:46:22.353Z,66.03
2022-11-15T14:48:48.752Z,65.95
2022-11-15T14:51:15.779Z,66.01
2022-11-15T14:53:42.289Z,65.98
2022-11-15T14:56:08.673Z,66.02
2022-11-15T14:58:35.196Z,65.84
2022-11-15T15:01:01.681Z,65.76
2022-11-15T15:03:28.086Z,66.05
2022-11-15T15:05:54.631Z,65.91
2022-11-15T15:08:23.319Z,65.47
2022-11-15T15:10:49.878Z,65.62
2022-11-15T15:13:16.415Z,65.88
2022-11-15T15:15:42.726Z,65.70
2022-11-15T15:18:09.130Z,65.70
2022-11-15T15:20:35.828Z,65.84
2022-11-15T15:23:02.408Z,65.90
2022-11-15T15:25:28.822Z,65.76
2022-11-15T15:27:55.138Z,65.72
2022-11-15T15:30:21.576Z,65.65
2022-11-15T15:32:48.028Z,65.57
2022-11-15T15:35:14.498Z,65.38
2022-11-15T15:37:41.007Z,65.24
2022-11-15T15:40:09.996Z,65.62
2022-11-15T15:42:36.436Z,65.60
2022-11-15T15:45:02.818Z,65.50
2022-11-15T15:47:29.277Z,65.66
2022-11-15T15:49:58.500Z,65.24
2022-11-15T15:52:24.858Z,65.39
2022-11-15T15:54:51.193Z,65.43
2022-11-15T15:57:17.537Z,65.51
2022-11-15T15:59:44.021Z,65.21
2022-11-15T16:02:10.525Z,65.20
2022-11-15T16:04:37.109Z,65.50
2022-11-15T16:07:03.528Z,65.19
2022-11-15T16:09:29.891Z,65.37
2022-11-15T16:11:56.305Z,65.25
2022-11-15T16:14:22.861Z,65.12
2022-11-15T16:16:49.533Z,65.13
2022-11-15T16:19:16.222Z,65.38
2022-11-15T16:21:42.556Z,65.00
2022-11-15T16:24:09.143Z,64.94
2022-11-15T16:26:35.596Z,64.92
2022-11-15T16:29:02.082Z,65.03
2022-11-15T16:31:28.723Z,65.18
2022-11-15T16:33:55.040Z,65.09
2022-11-15T16:36:25.657Z,65.32
2022-11-15T16:38:55.878Z,65.36
2022-11-15T16:41:22.288Z,65.18
2022-11-15T16:43:48.668Z,65.10
2022-11-15T16:46:15.042Z,65.20
2022-11-15T16:48:41.319Z,64.85
2022-11-15T16:51:07.719Z,64.98
2022-11-15T16:53:34.165Z,65.01
2022-11-15T16:56:00.567Z,65.07
2022-11-15T16:58:26.895Z,65.12
2022-11-15T17:00:53.305Z,65.16
2022-11-15T17:03:19.727Z,64.81
2022-11-15T17:05:46.162Z,65.05
2022-11-15T17:08:12.546Z,64.73
2022-11-15T17:10:38.879Z,64.99
2022-11-15T17:13:05.268Z,64.97
2022-11-15T17:15:33.668Z,64.68
2022-11-15T17:18:00.001Z,64.83
2022-11-15T17:20:26.505Z,65.08
2022-11-15T17:22:52.862Z,65.12
2022-11-15T17:25:19.296Z,64.83
2022-11-15T17:27:45.618Z,64.90
2022-11-15T17:30:12.012Z,64.78
2022-11-15T17:32:38.367Z,64.95
2022-11-15T17:35:04.755Z,64.92
2022-11-15T17:37:31.146Z,64.97
2022-11-15T17:39:57.522Z,64.92
2022-11-15T17:42:24.020Z,64.94
2022-11-15T17:44:50.342Z,64.58
2022-11-15T17:47:17.834Z,64.75
2022-11-15T17:49:44.543Z,64.88
2022-11-15T17:52:10.873Z,64.80
2022-11-15T17:54:40.245Z,64.81
2022-11-15T17:57:06.588Z,64.56
2022-11-15T17:59:32.918Z,64.55
2022-11-15T18:01:59.243Z,64.69
2022-11-15T18:04:25.700Z,64.49
2022-11-15T18:06:52.274Z,64.57
2022-11-15T18:09:18.790Z,64.38
2022-11-15T18:11:45.192Z,64.15
2022-11-15T18:14:11.621Z,64.15
2022-11-15T18:16:37.908Z,64.25
2022-11-15T18:19:04.321Z,63.95
2022-11-15T18:21:32.698Z,64.07
2022-11-15T18:23:59.228Z,64.21
2022-11-15T18:26:27.831Z,64.56
2022-11-15T18:28:54.455Z,64.67
2022-11-15T18:31:20.775Z,64.62
2022-11-15T18:33:48.150Z,64.49
2022-11-15T18:36:14.789Z,64.77
2022-11-15T18:38:41.208Z,64.75
2022-11-15T18:41:07.907Z,64.85
2022-11-15T18:43:34.561Z,65.01
2022-11-15T18:46:01.076Z,65.05
2022-11-15T18:48:27.436Z,65.36
2022-11-15T18:50:54.133Z,65.33
2022-11-15T18:53:20.734Z,65.12
2022-11-15T18:55:47.110Z,65.01
2022-11-15T18:58:13.544Z,65.30
2022-11-15T19:00:39.959Z,64.96
2022-11-15T19:03:06.394Z,64.97
2022-11-15T19:05:32.846Z,64.54
2022-11-15T19:07:59.329Z,64.18
2022-11-15T19:10:27.708Z,64.31
2022-11-15T19:12:54.206Z,64.34
2022-11-15T19:15:20.601Z,63.88
2022-11-15T19:17:47.054Z,64.00
2022-11-15T19:20:13.821Z,64.36
2022-11-15T19:22:42.232Z,64.07
2022-11-15T19:25:08.756Z,64.24
2022-11-15T19:27:38.011Z,64.62
2022-11-15T19:30:04.637Z,64.57
2022-11-15T19:32:31.085Z,64.59
2022-11-15T19:34:58.842Z,64.63
2022-11-15T19:37:25.440Z,64.66
2022-11-15T19:39:51.892Z,64.88
2022-11-15T19:42:18.288Z,64.56
2022-11-15T19:44:44.702Z,64.65
2022-11-15T19:47:11.064Z,64.64
2022-11-15T19:49:37.407Z,64.40
2022-11-15T19:52:04.155Z,63.95
2022-11-15T19:54:30.520Z,64.18
2022-11-15T19:56:56.882Z,64.45
2022-11-15T19:59:24.391Z,64.54
2022-11-15T20:01:50.758Z,64.52
2022-11-15T20:04:17.281Z,64.80
2022-11-15T20:06:43.658Z,65.26
2022-11-15T20:09:12.326Z,65.33
2022-11-15T20:11:38.835Z,65.11
2022-11-15T20:14:05.373Z,65.30
2022-11-15T20:16:40.612Z,65.39
2022-11-15T20:19:07.089Z,65.43
2022-11-15T20:21:33.771Z,65.62
2022-11-15T20:24:00.255Z,65.63
2022-11-15T20:26:34.397Z,65.66
2022-11-15T20:29:00.787Z,65.69
2022-11-15T20:31:27.318Z,65.70
2022-11-15T20:33:53.774Z,65.75
2022-11-15T20:39:00.446Z,65.83
2022-11-15T20:41:27.074Z,65.66
2022-11-15T20:43:53.433Z,65.68
2022-11-15T20:46:21.581Z,65.74
2022-11-15T20:48:48.020Z,66.16
2022-11-15T20:51:14.456Z,66.12
2022-11-15T20:53:41.279Z,65.77
2022-11-15T20:58:48.230Z,65.95
2022-11-15T21:01:14.650Z,66.00
2022-11-15T21:03:42.227Z,65.94
2022-11-15T21:06:08.737Z,66.10
2022-11-15T21:08:35.906Z,66.39
2022-11-15T21:11:02.325Z,66.13
2022-11-15T21:13:29.190Z,66.54
2022-11-15T21:18:36.529Z,66.15
2022-11-15T21:21:03.045Z,66.31
2022-11-15T21:23:29.613Z,66.23
2022-11-15T21:28:36.714Z,66.43
2022-11-15T21:31:03.162Z,66.42
2022-11-15T21:33:29.496Z,66.24
2022-11-15T21:38:36.302Z,66.20
2022-11-15T21:41:02.997Z,66.30
2022-11-15T21:43:29.862Z,66.32
2022-11-15T21:45:56.807Z,66.42
2022-11-15T21:48:23.194Z,66.35
2022-11-15T21:50:49.587Z,66.64
2022-11-15T21:53:16.208Z,66.39
2022-11-15T21:58:23.100Z,66.74
2022-11-15T22:00:49.803Z,66.96
2022-11-15T22:03:16.336Z,67.11
2022-11-15T22:08:22.996Z,65.94
2022-11-15T22:10:49.362Z,66.81
2022-11-15T22:19:04.134Z,65.21
2022-11-15T22:21:30.554Z,65.02
2022-11-15T22:23:57.118Z,65.36
2022-11-15T22:26:24.265Z,65.27
2022-11-15T22:28:50.906Z,65.29
2022-11-15T22:31:17.547Z,65.44
2022-11-15T22:33:44.040Z,65.71
2022-11-15T22:36:10.367Z,66.08
2022-11-15T22:38:37.337Z,65.86
2022-11-15T22:41:04.133Z,66.23
2022-11-15T22:43:30.470Z,65.94
2022-11-15T22:45:56.825Z,66.37
2022-11-15T22:48:24.312Z,66.35
2022-11-15T22:50:50.820Z,66.54
2022-11-15T22:53:21.960Z,66.33
2022-11-15T22:55:48.395Z,66.71
2022-11-15T22:58:14.824Z,66.64
2022-11-15T23:00:41.193Z,66.72
2022-11-15T23:03:07.894Z,66.68
2022-11-15T23:05:34.483Z,66.72
2022-11-15T23:08:00.921Z,66.78
2022-11-15T23:10:28.360Z,66.90
2022-11-15T23:12:54.780Z,67.17
2022-11-15T23:15:21.326Z,66.87
2022-11-15T23:17:47.755Z,66.96
2022-11-15T23:20:41.417Z,66.63
2022-11-15T23:23:00.973Z,66.78
2022-11-15T23:25:27.607Z,66.65
2022-11-15T23:27:53.949Z,66.49
2022-11-15T23:30:20.376Z,66.57
2022-11-15T23:32:47.846Z,66.92
2022-11-15T23:35:14.376Z,66.49
2022-11-15T23:37:40.825Z,66.67
2022-11-15T23:40:07.301Z,66.73
2022-11-15T23:42:36.611Z,66.59
2022-11-15T23:45:02.970Z,66.59
2022-11-15T23:47:29.368Z,66.63
2022-11-15T23:49:55.866Z,66.61
2022-11-15T23:52:22.357Z,66.74
2022-11-15T23:54:48.686Z,66.73
2022-11-15T23:57:16.126Z,66.48
2022-11-15T23:59:42.474Z,66.99
